sensor_id;sensor_type;location;lat;lon;timestamp;P1;durP1;ratioP1;P2;durP2;ratioP2
4089;SDS011;2059;48.538;12.146;2022-07-29T00:05:00;6.37;;;5.87;;
4089;SDS011;2059;48.538;12.146;2022-07-29T00:10:02;6.00;;;5.50;;
4089;SDS011;2059;48.538;12.146;2022-07-29T00:15:05;6.10;;;5.73;;
4089;SDS011;2059;48.538;12.146;2022-07-29T00:20:09;7.77;;;7.27;;
4089;SDS011;2059;48.538;12.146;2022-07-29T00:25:11;8.27;;;7.63;;
4089;SDS011;2059;48.538;12.146;2022-07-29T00:30:13;8.80;;;7.00;;
4089;SDS011;2059;48.538;12.146;2022-07-29T00:35:17;6.93;;;5.63;;
4089;SDS011;2059;48.538;12.146;2022-07-29T00:40:36;6.50;;;6.00;;
4089;SDS011;2059;48.538;12.146;2022-07-29T00:45:38;7.10;;;6.40;;
4089;SDS011;2059;48.538;12.146;2022-07-29T00:50:41;6.57;;;5.97;;
4089;SDS011;2059;48.538;12.146;2022-07-29T00:55:43;8.33;;;7.63;;
4089;SDS011;2059;48.538;12.146;2022-07-29T01:00:45;8.40;;;7.70;;
4089;SDS011;2059;48.538;12.146;2022-07-29T01:05:48;9.10;;;6.83;;
4089;SDS011;2059;48.538;12.146;2022-07-29T01:10:50;7.20;;;6.50;;
4089;SDS011;2059;48.538;12.146;2022-07-29T01:15:54;7.20;;;6.63;;
4089;SDS011;2059;48.538;12.146;2022-07-29T01:21:16;5.83;;;5.40;;
4089;SDS011;2059;48.538;12.146;2022-07-29T01:26:33;7.40;;;5.23;;
4089;SDS011;2059;48.538;12.146;2022-07-29T01:31:45;6.03;;;5.53;;
4089;SDS011;2059;48.538;12.146;2022-07-29T01:36:54;5.40;;;5.00;;
4089;SDS011;2059;48.538;12.146;2022-07-29T01:42:02;6.63;;;5.93;;
4089;SDS011;2059;48.538;12.146;2022-07-29T01:47:12;5.67;;;5.17;;
4089;SDS011;2059;48.538;12.146;2022-07-29T01:52:20;5.40;;;4.90;;
4089;SDS011;2059;48.538;12.146;2022-07-29T01:57:26;5.93;;;5.43;;
4089;SDS011;2059;48.538;12.146;2022-07-29T02:02:34;6.00;;;5.50;;
4089;SDS011;2059;48.538;12.146;2022-07-29T02:07:38;7.57;;;5.40;;
4089;SDS011;2059;48.538;12.146;2022-07-29T02:12:43;5.07;;;4.77;;
4089;SDS011;2059;48.538;12.146;2022-07-29T02:17:49;4.90;;;4.60;;
4089;SDS011;2059;48.538;12.146;2022-07-29T02:23:02;4.97;;;4.50;;
4089;SDS011;2059;48.538;12.146;2022-07-29T02:28:05;4.97;;;4.60;;
4089;SDS011;2059;48.538;12.146;2022-07-29T02:33:10;4.50;;;4.20;;
4089;SDS011;2059;48.538;12.146;2022-07-29T02:38:15;5.20;;;4.70;;
4089;SDS011;2059;48.538;12.146;2022-07-29T02:43:36;5.17;;;4.67;;
4089;SDS011;2059;48.538;12.146;2022-07-29T02:48:43;6.10;;;5.57;;
4089;SDS011;2059;48.538;12.146;2022-07-29T02:53:51;5.00;;;4.50;;
4089;SDS011;2059;48.538;12.146;2022-07-29T02:58:56;4.77;;;4.27;;
4089;SDS011;2059;48.538;12.146;2022-07-29T03:04:03;4.23;;;3.93;;
4089;SDS011;2059;48.538;12.146;2022-07-29T03:09:06;4.10;;;3.90;;
4089;SDS011;2059;48.538;12.146;2022-07-29T03:14:09;5.10;;;4.80;;
4089;SDS011;2059;48.538;12.146;2022-07-29T03:19:12;5.30;;;5.00;;
4089;SDS011;2059;48.538;12.146;2022-07-29T03:24:24;4.40;;;4.20;;
4089;SDS011;2059;48.538;12.146;2022-07-29T03:29:29;3.70;;;3.50;;
4089;SDS011;2059;48.538;12.146;2022-07-29T03:34:32;3.43;;;3.23;;
4089;SDS011;2059;48.538;12.146;2022-07-29T03:39:35;6.90;;;3.93;;
4089;SDS011;2059;48.538;12.146;2022-07-29T03:44:41;3.80;;;3.50;;
4089;SDS011;2059;48.538;12.146;2022-07-29T03:49:48;3.80;;;3.50;;
4089;SDS011;2059;48.538;12.146;2022-07-29T03:54:52;3.77;;;3.57;;
4089;SDS011;2059;48.538;12.146;2022-07-29T03:59:55;3.50;;;3.40;;
4089;SDS011;2059;48.538;12.146;2022-07-29T04:05:01;4.00;;;3.80;;
4089;SDS011;2059;48.538;12.146;2022-07-29T04:10:03;4.20;;;4.00;;
4089;SDS011;2059;48.538;12.146;2022-07-29T04:15:06;4.00;;;3.80;;
4089;SDS011;2059;48.538;12.146;2022-07-29T04:20:11;4.33;;;4.03;;
4089;SDS011;2059;48.538;12.146;2022-07-29T04:25:13;6.20;;;5.90;;
4089;SDS011;2059;48.538;12.146;2022-07-29T04:30:15;5.00;;;4.70;;
4089;SDS011;2059;48.538;12.146;2022-07-29T04:35:18;4.50;;;4.10;;
4089;SDS011;2059;48.538;12.146;2022-07-29T04:40:20;4.03;;;3.80;;
4089;SDS011;2059;48.538;12.146;2022-07-29T04:45:22;4.10;;;3.87;;
4089;SDS011;2059;48.538;12.146;2022-07-29T04:50:25;4.50;;;4.20;;
4089;SDS011;2059;48.538;12.146;2022-07-29T04:55:27;4.20;;;4.00;;
4089;SDS011;2059;48.538;12.146;2022-07-29T05:00:30;4.00;;;3.80;;
4089;SDS011;2059;48.538;12.146;2022-07-29T05:05:34;4.57;;;4.20;;
4089;SDS011;2059;48.538;12.146;2022-07-29T05:10:35;4.90;;;4.50;;
4089;SDS011;2059;48.538;12.146;2022-07-29T05:15:38;4.30;;;4.00;;
4089;SDS011;2059;48.538;12.146;2022-07-29T05:20:41;4.47;;;4.07;;
4089;SDS011;2059;48.538;12.146;2022-07-29T05:25:43;3.90;;;3.70;;
4089;SDS011;2059;48.538;12.146;2022-07-29T05:30:46;4.40;;;4.00;;
4089;SDS011;2059;48.538;12.146;2022-07-29T05:35:49;4.93;;;4.40;;
4089;SDS011;2059;48.538;12.146;2022-07-29T05:40:51;4.13;;;3.83;;
4089;SDS011;2059;48.538;12.146;2022-07-29T05:45:53;4.83;;;4.37;;
4089;SDS011;2059;48.538;12.146;2022-07-29T05:50:56;4.80;;;4.40;;
4089;SDS011;2059;48.538;12.146;2022-07-29T05:55:58;4.20;;;3.83;;
4089;SDS011;2059;48.538;12.146;2022-07-29T06:01:04;4.27;;;4.07;;
4089;SDS011;2059;48.538;12.146;2022-07-29T06:06:07;3.93;;;3.70;;
4089;SDS011;2059;48.538;12.146;2022-07-29T06:11:09;4.90;;;3.77;;
4089;SDS011;2059;48.538;12.146;2022-07-29T06:16:11;3.87;;;3.53;;
4089;SDS011;2059;48.538;12.146;2022-07-29T06:21:14;4.67;;;4.37;;
4089;SDS011;2059;48.538;12.146;2022-07-29T06:26:16;3.93;;;3.73;;
4089;SDS011;2059;48.538;12.146;2022-07-29T06:31:17;3.90;;;3.70;;
4089;SDS011;2059;48.538;12.146;2022-07-29T06:36:21;3.77;;;3.57;;
4089;SDS011;2059;48.538;12.146;2022-07-29T06:41:22;3.90;;;3.70;;
4089;SDS011;2059;48.538;12.146;2022-07-29T06:46:24;3.67;;;3.37;;
4089;SDS011;2059;48.538;12.146;2022-07-29T06:51:28;3.80;;;3.60;;
4089;SDS011;2059;48.538;12.146;2022-07-29T06:56:30;4.90;;;3.67;;
4089;SDS011;2059;48.538;12.146;2022-07-29T07:01:33;3.80;;;3.60;;
4089;SDS011;2059;48.538;12.146;2022-07-29T07:06:37;4.13;;;3.83;;
4089;SDS011;2059;48.538;12.146;2022-07-29T07:11:39;4.17;;;3.87;;
4089;SDS011;2059;48.538;12.146;2022-07-29T07:16:41;3.90;;;3.70;;
4089;SDS011;2059;48.538;12.146;2022-07-29T07:21:44;4.57;;;3.87;;
4089;SDS011;2059;48.538;12.146;2022-07-29T07:26:46;3.60;;;3.40;;
4089;SDS011;2059;48.538;12.146;2022-07-29T07:31:48;4.00;;;3.80;;
4089;SDS011;2059;48.538;12.146;2022-07-29T07:36:51;4.37;;;4.00;;
4089;SDS011;2059;48.538;12.146;2022-07-29T07:41:53;4.13;;;3.93;;
4089;SDS011;2059;48.538;12.146;2022-07-29T07:46:55;6.37;;;6.07;;
4089;SDS011;2059;48.538;12.146;2022-07-29T07:51:58;6.23;;;5.83;;
4089;SDS011;2059;48.538;12.146;2022-07-29T07:57:00;3.63;;;3.43;;
4089;SDS011;2059;48.538;12.146;2022-07-29T08:02:02;3.33;;;3.13;;
4089;SDS011;2059;48.538;12.146;2022-07-29T08:07:06;3.30;;;3.10;;
4089;SDS011;2059;48.538;12.146;2022-07-29T08:12:08;3.30;;;3.20;;
4089;SDS011;2059;48.538;12.146;2022-07-29T08:17:10;3.60;;;3.40;;
4089;SDS011;2059;48.538;12.146;2022-07-29T08:22:13;3.17;;;3.07;;
4089;SDS011;2059;48.538;12.146;2022-07-29T08:27:15;6.20;;;5.90;;
4089;SDS011;2059;48.538;12.146;2022-07-29T08:32:17;5.83;;;5.53;;
4089;SDS011;2059;48.538;12.146;2022-07-29T08:37:21;5.80;;;5.50;;
4089;SDS011;2059;48.538;12.146;2022-07-29T08:42:22;3.60;;;3.50;;
4089;SDS011;2059;48.538;12.146;2022-07-29T08:47:24;4.00;;;3.70;;
4089;SDS011;2059;48.538;12.146;2022-07-29T08:52:29;3.10;;;3.00;;
4089;SDS011;2059;48.538;12.146;2022-07-29T08:57:37;5.50;;;5.20;;
4089;SDS011;2059;48.538;12.146;2022-07-29T09:02:40;4.90;;;4.70;;
4089;SDS011;2059;48.538;12.146;2022-07-29T09:07:46;5.90;;;5.60;;
4089;SDS011;2059;48.538;12.146;2022-07-29T09:12:48;3.93;;;3.63;;
4089;SDS011;2059;48.538;12.146;2022-07-29T09:17:50;3.20;;;3.00;;
4089;SDS011;2059;48.538;12.146;2022-07-29T09:22:53;3.43;;;3.33;;
4089;SDS011;2059;48.538;12.146;2022-07-29T09:27:55;3.00;;;2.90;;
4089;SDS011;2059;48.538;12.146;2022-07-29T09:33:06;3.50;;;3.30;;
4089;SDS011;2059;48.538;12.146;2022-07-29T09:38:13;3.70;;;3.50;;
4089;SDS011;2059;48.538;12.146;2022-07-29T09:43:15;3.23;;;3.13;;
4089;SDS011;2059;48.538;12.146;2022-07-29T09:48:18;3.67;;;3.57;;
4089;SDS011;2059;48.538;12.146;2022-07-29T09:53:32;3.27;;;3.17;;
4089;SDS011;2059;48.538;12.146;2022-07-29T09:58:35;3.20;;;3.00;;
4089;SDS011;2059;48.538;12.146;2022-07-29T10:03:50;3.10;;;2.90;;
4089;SDS011;2059;48.538;12.146;2022-07-29T10:08:53;3.50;;;3.20;;
4089;SDS011;2059;48.538;12.146;2022-07-29T10:13:56;5.33;;;4.90;;
4089;SDS011;2059;48.538;12.146;2022-07-29T10:18:58;3.83;;;3.67;;
4089;SDS011;2059;48.538;12.146;2022-07-29T10:24:01;3.53;;;3.33;;
4089;SDS011;2059;48.538;12.146;2022-07-29T10:29:05;6.70;;;6.30;;
4089;SDS011;2059;48.538;12.146;2022-07-29T10:34:07;4.10;;;3.90;;
4089;SDS011;2059;48.538;12.146;2022-07-29T10:39:23;5.83;;;5.53;;
4089;SDS011;2059;48.538;12.146;2022-07-29T10:44:34;6.23;;;5.80;;
4089;SDS011;2059;48.538;12.146;2022-07-29T10:49:36;6.33;;;5.90;;
4089;SDS011;2059;48.538;12.146;2022-07-29T10:54:46;6.17;;;5.87;;
4089;SDS011;2059;48.538;12.146;2022-07-29T11:00:21;6.20;;;5.80;;
4089;SDS011;2059;48.538;12.146;2022-07-29T11:05:41;6.23;;;5.83;;
4089;SDS011;2059;48.538;12.146;2022-07-29T11:22:04;6.40;;;6.10;;
4089;SDS011;2059;48.538;12.146;2022-07-29T11:27:12;6.63;;;6.23;;
4089;SDS011;2059;48.538;12.146;2022-07-29T11:32:16;6.50;;;6.00;;
4089;SDS011;2059;48.538;12.146;2022-07-29T11:37:20;4.87;;;3.33;;
4089;SDS011;2059;48.538;12.146;2022-07-29T11:42:40;3.70;;;3.60;;
4089;SDS011;2059;48.538;12.146;2022-07-29T11:47:51;3.70;;;3.40;;
4089;SDS011;2059;48.538;12.146;2022-07-29T11:52:54;4.07;;;3.87;;
4089;SDS011;2059;48.538;12.146;2022-07-29T11:57:58;4.00;;;3.80;;
4089;SDS011;2059;48.538;12.146;2022-07-29T12:03:01;3.77;;;3.57;;
4089;SDS011;2059;48.538;12.146;2022-07-29T12:08:10;3.70;;;3.40;;
4089;SDS011;2059;48.538;12.146;2022-07-29T12:13:15;3.73;;;3.53;;
4089;SDS011;2059;48.538;12.146;2022-07-29T12:18:18;3.60;;;3.50;;
4089;SDS011;2059;48.538;12.146;2022-07-29T12:23:21;4.90;;;4.60;;
4089;SDS011;2059;48.538;12.146;2022-07-29T12:28:24;3.60;;;3.50;;
4089;SDS011;2059;48.538;12.146;2022-07-29T12:33:29;3.70;;;3.50;;
4089;SDS011;2059;48.538;12.146;2022-07-29T12:38:31;3.80;;;3.60;;
4089;SDS011;2059;48.538;12.146;2022-07-29T12:43:35;3.70;;;3.50;;
4089;SDS011;2059;48.538;12.146;2022-07-29T12:48:39;4.20;;;3.90;;
4089;SDS011;2059;48.538;12.146;2022-07-29T12:54:01;3.73;;;3.57;;
4089;SDS011;2059;48.538;12.146;2022-07-29T12:59:12;4.00;;;3.70;;
4089;SDS011;2059;48.538;12.146;2022-07-29T13:04:23;4.10;;;3.90;;
4089;SDS011;2059;48.538;12.146;2022-07-29T13:09:35;4.20;;;4.00;;
4089;SDS011;2059;48.538;12.146;2022-07-29T13:14:43;3.90;;;3.70;;
4089;SDS011;2059;48.538;12.146;2022-07-29T13:19:47;4.50;;;4.30;;
4089;SDS011;2059;48.538;12.146;2022-07-29T13:24:50;4.53;;;4.33;;
4089;SDS011;2059;48.538;12.146;2022-07-29T13:29:55;3.93;;;3.73;;
4089;SDS011;2059;48.538;12.146;2022-07-29T13:35:01;4.00;;;3.80;;
4089;SDS011;2059;48.538;12.146;2022-07-29T13:40:06;4.10;;;3.90;;
4089;SDS011;2059;48.538;12.146;2022-07-29T13:45:10;3.80;;;3.60;;
4089;SDS011;2059;48.538;12.146;2022-07-29T13:50:12;3.60;;;3.40;;
4089;SDS011;2059;48.538;12.146;2022-07-29T13:55:14;3.73;;;3.53;;
4089;SDS011;2059;48.538;12.146;2022-07-29T14:00:17;4.00;;;3.80;;
4089;SDS011;2059;48.538;12.146;2022-07-29T14:05:20;3.83;;;3.63;;
4089;SDS011;2059;48.538;12.146;2022-07-29T14:10:21;4.80;;;4.30;;
4089;SDS011;2059;48.538;12.146;2022-07-29T14:15:25;3.90;;;3.70;;
4089;SDS011;2059;48.538;12.146;2022-07-29T14:20:27;4.83;;;3.73;;
4089;SDS011;2059;48.538;12.146;2022-07-29T14:25:29;4.10;;;3.80;;
4089;SDS011;2059;48.538;12.146;2022-07-29T14:30:32;4.10;;;3.90;;
4089;SDS011;2059;48.538;12.146;2022-07-29T14:35:34;3.90;;;3.60;;
4089;SDS011;2059;48.538;12.146;2022-07-29T14:40:36;3.90;;;3.67;;
4089;SDS011;2059;48.538;12.146;2022-07-29T14:45:40;4.23;;;3.97;;
4089;SDS011;2059;48.538;12.146;2022-07-29T14:50:42;4.73;;;4.33;;
4089;SDS011;2059;48.538;12.146;2022-07-29T14:55:44;4.30;;;4.10;;
4089;SDS011;2059;48.538;12.146;2022-07-29T15:00:47;3.93;;;3.73;;
4089;SDS011;2059;48.538;12.146;2022-07-29T15:05:49;4.40;;;4.10;;
4089;SDS011;2059;48.538;12.146;2022-07-29T15:10:51;3.90;;;3.70;;
4089;SDS011;2059;48.538;12.146;2022-07-29T15:15:54;4.07;;;3.87;;
4089;SDS011;2059;48.538;12.146;2022-07-29T15:20:56;3.83;;;3.63;;
4089;SDS011;2059;48.538;12.146;2022-07-29T15:26:00;3.93;;;3.73;;
4089;SDS011;2059;48.538;12.146;2022-07-29T15:31:03;3.93;;;3.80;;
4089;SDS011;2059;48.538;12.146;2022-07-29T15:36:05;3.97;;;3.77;;
4089;SDS011;2059;48.538;12.146;2022-07-29T15:41:07;3.80;;;3.70;;
4089;SDS011;2059;48.538;12.146;2022-07-29T15:46:12;4.27;;;3.97;;
4089;SDS011;2059;48.538;12.146;2022-07-29T15:51:32;4.17;;;3.87;;
4089;SDS011;2059;48.538;12.146;2022-07-29T15:56:34;5.07;;;4.80;;
4089;SDS011;2059;48.538;12.146;2022-07-29T16:01:37;3.90;;;3.80;;
4089;SDS011;2059;48.538;12.146;2022-07-29T16:06:40;5.90;;;5.50;;
4089;SDS011;2059;48.538;12.146;2022-07-29T16:11:42;4.10;;;3.80;;
4089;SDS011;2059;48.538;12.146;2022-07-29T16:16:46;5.17;;;4.87;;
4089;SDS011;2059;48.538;12.146;2022-07-29T16:21:48;5.60;;;5.10;;
4089;SDS011;2059;48.538;12.146;2022-07-29T16:26:50;6.13;;;4.80;;
4089;SDS011;2059;48.538;12.146;2022-07-29T16:31:53;4.90;;;4.60;;
4089;SDS011;2059;48.538;12.146;2022-07-29T16:36:55;5.40;;;5.00;;
4089;SDS011;2059;48.538;12.146;2022-07-29T16:41:57;5.13;;;4.80;;
4089;SDS011;2059;48.538;12.146;2022-07-29T16:47:00;4.23;;;3.93;;
4089;SDS011;2059;48.538;12.146;2022-07-29T16:52:02;4.87;;;4.40;;
4089;SDS011;2059;48.538;12.146;2022-07-29T16:57:06;5.80;;;5.40;;
4089;SDS011;2059;48.538;12.146;2022-07-29T17:02:10;6.07;;;5.77;;
4089;SDS011;2059;48.538;12.146;2022-07-29T17:07:12;4.60;;;4.20;;
4089;SDS011;2059;48.538;12.146;2022-07-29T17:12:15;3.90;;;3.80;;
4089;SDS011;2059;48.538;12.146;2022-07-29T17:17:18;4.70;;;4.30;;
4089;SDS011;2059;48.538;12.146;2022-07-29T17:22:20;4.50;;;4.20;;
4089;SDS011;2059;48.538;12.146;2022-07-29T17:27:21;4.23;;;4.03;;
4089;SDS011;2059;48.538;12.146;2022-07-29T17:32:25;6.53;;;6.03;;
4089;SDS011;2059;48.538;12.146;2022-07-29T17:37:26;4.63;;;4.33;;
4089;SDS011;2059;48.538;12.146;2022-07-29T17:42:28;4.70;;;4.30;;
4089;SDS011;2059;48.538;12.146;2022-07-29T17:47:32;3.93;;;3.73;;
4089;SDS011;2059;48.538;12.146;2022-07-29T17:52:34;4.37;;;3.97;;
4089;SDS011;2059;48.538;12.146;2022-07-29T17:57:36;4.70;;;4.30;;
4089;SDS011;2059;48.538;12.146;2022-07-29T18:02:40;4.07;;;3.87;;
4089;SDS011;2059;48.538;12.146;2022-07-29T18:07:42;4.33;;;4.03;;
4089;SDS011;2059;48.538;12.146;2022-07-29T18:12:44;3.50;;;3.40;;
4089;SDS011;2059;48.538;12.146;2022-07-29T18:17:47;4.23;;;4.03;;
4089;SDS011;2059;48.538;12.146;2022-07-29T18:22:49;4.70;;;4.37;;
4089;SDS011;2059;48.538;12.146;2022-07-29T18:27:51;3.30;;;3.20;;
4089;SDS011;2059;48.538;12.146;2022-07-29T18:32:54;4.17;;;3.87;;
4089;SDS011;2059;48.538;12.146;2022-07-29T18:37:56;4.07;;;3.87;;
4089;SDS011;2059;48.538;12.146;2022-07-29T18:42:58;3.70;;;3.50;;
4089;SDS011;2059;48.538;12.146;2022-07-29T18:48:02;3.67;;;3.47;;
4089;SDS011;2059;48.538;12.146;2022-07-29T18:53:04;3.60;;;3.50;;
4089;SDS011;2059;48.538;12.146;2022-07-29T18:58:06;4.00;;;3.80;;
4089;SDS011;2059;48.538;12.146;2022-07-29T19:03:09;4.30;;;4.10;;
4089;SDS011;2059;48.538;12.146;2022-07-29T19:08:11;3.67;;;3.37;;
4089;SDS011;2059;48.538;12.146;2022-07-29T19:13:13;4.97;;;4.57;;
4089;SDS011;2059;48.538;12.146;2022-07-29T19:18:16;4.63;;;4.23;;
4089;SDS011;2059;48.538;12.146;2022-07-29T19:23:18;4.20;;;4.00;;
4089;SDS011;2059;48.538;12.146;2022-07-29T19:28:20;5.50;;;5.17;;
4089;SDS011;2059;48.538;12.146;2022-07-29T19:33:23;4.80;;;4.50;;
4089;SDS011;2059;48.538;12.146;2022-07-29T19:38:25;4.40;;;4.10;;
4089;SDS011;2059;48.538;12.146;2022-07-29T19:43:27;3.83;;;3.63;;
4089;SDS011;2059;48.538;12.146;2022-07-29T19:48:32;3.80;;;3.60;;
4089;SDS011;2059;48.538;12.146;2022-07-29T19:53:33;3.50;;;3.30;;
4089;SDS011;2059;48.538;12.146;2022-07-29T19:58:35;4.30;;;4.10;;
4089;SDS011;2059;48.538;12.146;2022-07-29T20:03:40;4.63;;;4.20;;
4089;SDS011;2059;48.538;12.146;2022-07-29T20:08:43;3.90;;;3.70;;
4089;SDS011;2059;48.538;12.146;2022-07-29T20:13:45;4.50;;;4.30;;
4089;SDS011;2059;48.538;12.146;2022-07-29T20:18:48;5.60;;;3.77;;
4089;SDS011;2059;48.538;12.146;2022-07-29T20:23:50;3.43;;;3.23;;
4089;SDS011;2059;48.538;12.146;2022-07-29T20:28:52;5.13;;;4.80;;
4089;SDS011;2059;48.538;12.146;2022-07-29T20:33:55;5.80;;;5.50;;
4089;SDS011;2059;48.538;12.146;2022-07-29T20:38:57;3.20;;;3.10;;
4089;SDS011;2059;48.538;12.146;2022-07-29T20:43:59;3.03;;;2.93;;
4089;SDS011;2059;48.538;12.146;2022-07-29T20:49:03;3.43;;;3.33;;
4089;SDS011;2059;48.538;12.146;2022-07-29T20:54:05;2.80;;;2.70;;
4089;SDS011;2059;48.538;12.146;2022-07-29T20:59:07;2.90;;;2.70;;
4089;SDS011;2059;48.538;12.146;2022-07-29T21:04:11;3.30;;;3.10;;
4089;SDS011;2059;48.538;12.146;2022-07-29T21:09:13;3.27;;;3.13;;
4089;SDS011;2059;48.538;12.146;2022-07-29T21:14:15;4.17;;;3.97;;
4089;SDS011;2059;48.538;12.146;2022-07-29T21:19:30;3.40;;;3.20;;
4089;SDS011;2059;48.538;12.146;2022-07-29T21:24:32;3.13;;;3.03;;
4089;SDS011;2059;48.538;12.146;2022-07-29T21:29:33;3.47;;;3.27;;
4089;SDS011;2059;48.538;12.146;2022-07-29T21:34:37;3.40;;;3.30;;
4089;SDS011;2059;48.538;12.146;2022-07-29T21:39:39;3.67;;;3.37;;
4089;SDS011;2059;48.538;12.146;2022-07-29T21:44:40;3.20;;;3.00;;
4089;SDS011;2059;48.538;12.146;2022-07-29T21:49:44;3.30;;;3.10;;
4089;SDS011;2059;48.538;12.146;2022-07-29T21:54:46;3.43;;;3.33;;
4089;SDS011;2059;48.538;12.146;2022-07-29T21:59:48;4.03;;;3.70;;
4089;SDS011;2059;48.538;12.146;2022-07-29T22:04:51;3.77;;;3.47;;
4089;SDS011;2059;48.538;12.146;2022-07-29T22:09:53;3.90;;;3.70;;
4089;SDS011;2059;48.538;12.146;2022-07-29T22:14:55;3.80;;;3.50;;
4089;SDS011;2059;48.538;12.146;2022-07-29T22:19:58;4.50;;;4.20;;
4089;SDS011;2059;48.538;12.146;2022-07-29T22:25:00;3.90;;;3.70;;
4089;SDS011;2059;48.538;12.146;2022-07-29T22:30:03;4.47;;;4.17;;
4089;SDS011;2059;48.538;12.146;2022-07-29T22:35:07;5.10;;;4.70;;
4089;SDS011;2059;48.538;12.146;2022-07-29T22:40:10;8.67;;;8.10;;
4089;SDS011;2059;48.538;12.146;2022-07-29T22:45:12;4.67;;;4.37;;
4089;SDS011;2059;48.538;12.146;2022-07-29T22:50:15;5.20;;;4.80;;
4089;SDS011;2059;48.538;12.146;2022-07-29T22:55:17;5.87;;;4.47;;
4089;SDS011;2059;48.538;12.146;2022-07-29T23:00:19;5.60;;;5.20;;
4089;SDS011;2059;48.538;12.146;2022-07-29T23:05:23;4.93;;;4.63;;
4089;SDS011;2059;48.538;12.146;2022-07-29T23:10:25;4.83;;;4.53;;
4089;SDS011;2059;48.538;12.146;2022-07-29T23:15:27;5.57;;;4.97;;
4089;SDS011;2059;48.538;12.146;2022-07-29T23:20:30;7.57;;;6.97;;
4089;SDS011;2059;48.538;12.146;2022-07-29T23:25:32;4.80;;;4.50;;
4089;SDS011;2059;48.538;12.146;2022-07-29T23:30:34;4.60;;;4.30;;
4089;SDS011;2059;48.538;12.146;2022-07-29T23:35:37;4.70;;;4.30;;
4089;SDS011;2059;48.538;12.146;2022-07-29T23:40:39;4.73;;;4.40;;
4089;SDS011;2059;48.538;12.146;2022-07-29T23:45:41;5.10;;;4.63;;
4089;SDS011;2059;48.538;12.146;2022-07-29T23:50:44;4.70;;;4.30;;
4089;SDS011;2059;48.538;12.146;2022-07-29T23:55:46;5.40;;;5.10;;
